Time;durP1;ratioP1;P1;durP2;ratioP2;P2;SDS_P1;SDS_P2;PMS_P1;PMS_P2;Temp;Humidity;BMP_temperature;BMP_pressure;BME280_temperature;BME280_humidity;BME280_pressure;Samples;Min_cycle;Max_cycle;Signal;HPM_P1;HPM_P2
2022/08/16 00:01:19;;;;;;;0.00;0.00;;;28.00;62.70;;;;;;3940442;30;20086;-66
2022/08/16 00:03:41;;;;;;;0.00;0.00;;;28.00;62.80;;;;;;3940241;30;20112;-67
2022/08/16 00:06:03;;;;;;;0.00;0.00;;;28.00;62.80;;;;;;3955548;30;20055;-67
2022/08/16 00:08:25;;;;;;;0.20;0.20;;;28.00;62.80;;;;;;3954900;30;20116;-68
2022/08/16 00:10:51;;;;;;;0.08;0.08;;;28.00;62.70;;;;;;3941868;30;20097;-68
2022/08/16 00:13:14;;;;;;;1.85;0.63;;;28.00;62.70;;;;;;3954779;29;20134;-68
2022/08/16 00:15:39;;;;;;;0.20;0.20;;;28.00;62.70;;;;;;3955155;29;20518;-68
2022/08/16 00:18:14;;;;;;;7.53;1.13;;;28.00;62.70;;;;;;3940896;29;20443;-68
2022/08/16 00:20:38;;;;;;;0.32;0.32;;;28.00;62.70;;;;;;3956758;29;20054;-67
2022/08/16 00:23:00;;;;;;;0.93;0.93;;;28.00;62.70;;;;;;3957060;29;20079;-67
2022/08/16 00:25:24;;;;;;;1.35;0.65;;;28.00;62.70;;;;;;3957645;29;20085;-67
2022/08/16 00:28:07;;;;;;;0.17;0.17;;;27.90;62.70;;;;;;3957946;29;20062;-67
2022/08/16 00:30:29;;;;;;;0.20;0.20;;;28.00;62.70;;;;;;3957378;29;20066;-68
2022/08/16 00:32:55;;;;;;;0.70;0.70;;;28.00;62.80;;;;;;3944044;30;20511;-67
2022/08/16 00:35:23;;;;;;;0.20;0.20;;;27.90;62.70;;;;;;3957487;30;20145;-67
2022/08/16 00:37:46;;;;;;;0.73;0.73;;;27.90;62.70;;;;;;3957435;30;20161;-67
2022/08/16 00:40:21;;;;;;;0.20;0.20;;;27.90;62.70;;;;;;3943601;30;20142;-67
2022/08/16 00:42:55;;;;;;;0.70;0.55;;;27.90;62.70;;;;;;3957466;29;20051;-67
2022/08/16 00:45:32;;;;;;;0.20;0.20;;;27.90;62.80;;;;;;3943259;30;20199;-67
2022/08/16 00:47:56;;;;;;;3.00;0.73;;;27.90;62.90;;;;;;3956880;29;20169;-67
2022/08/16 00:50:27;;;;;;;0.00;0.00;;;27.90;63.00;;;;;;3943052;29;20059;-68
2022/08/16 00:52:57;;;;;;;0.28;0.28;;;27.90;63.00;;;;;;3928178;30;20473;-68
2022/08/16 00:55:23;;;;;;;0.20;0.20;;;27.90;63.00;;;;;;3928303;30;20071;-67
2022/08/16 00:57:46;;;;;;;0.00;0.00;;;27.90;63.00;;;;;;3928911;30;20532;-69
2022/08/16 01:00:23;;;;;;;0.00;0.00;;;27.90;63.00;;;;;;3928188;30;20721;-69
2022/08/16 01:02:46;;;;;;;0.00;0.00;;;27.90;63.10;;;;;;3942274;30;20059;-68
2022/08/16 01:05:10;;;;;;;0.38;0.38;;;27.90;63.10;;;;;;3957230;29;20059;-69
2022/08/16 01:07:35;;;;;;;0.00;0.00;;;27.90;63.30;;;;;;3956907;29;20738;-69
2022/08/16 01:10:05;;;;;;;0.63;0.63;;;27.90;63.30;;;;;;3943287;30;20109;-69
2022/08/16 01:12:36;;;;;;;0.63;0.63;;;27.90;63.40;;;;;;3957157;29;20074;-69
2022/08/16 01:15:00;;;;;;;0.00;0.00;;;27.90;63.40;;;;;;3943024;30;20495;-68
2022/08/16 01:17:24;;;;;;;0.20;0.20;;;27.80;63.50;;;;;;3957073;29;20087;-68
2022/08/16 01:19:49;;;;;;;1.75;0.85;;;27.80;63.50;;;;;;3943254;30;20062;-68
2022/08/16 01:22:19;;;;;;;0.00;0.00;;;27.80;63.60;;;;;;3943093;30;20093;-68
2022/08/16 01:25:06;;;;;;;0.10;0.10;;;27.80;63.70;;;;;;3943474;30;20209;-68
2022/08/16 01:27:32;;;;;;;0.00;0.00;;;27.80;63.70;;;;;;3928333;30;20105;-68
2022/08/16 01:30:01;;;;;;;0.75;0.65;;;27.80;63.80;;;;;;3928538;30;20358;-68
2022/08/16 01:32:26;;;;;;;0.10;0.10;;;27.80;63.80;;;;;;3927833;30;20463;-68
2022/08/16 01:34:53;;;;;;;0.28;0.28;;;27.80;63.90;;;;;;3942466;30;20448;-68
2022/08/16 01:37:18;;;;;;;0.00;0.00;;;27.80;64.30;;;;;;3942681;30;20581;-68
2022/08/16 01:39:42;;;;;;;0.15;0.15;;;27.80;64.00;;;;;;3943085;30;20059;-67
2022/08/16 01:42:07;;;;;;;0.13;0.13;;;27.80;64.10;;;;;;3956275;30;20058;-68
2022/08/16 01:44:33;;;;;;;0.45;0.45;;;27.80;64.10;;;;;;3956793;29;20071;-68
2022/08/16 01:46:58;;;;;;;0.00;0.00;;;27.80;64.20;;;;;;3943249;30;20496;-68
2022/08/16 01:49:25;;;;;;;0.10;0.10;;;27.80;64.20;;;;;;3943081;30;20554;-68
2022/08/16 01:52:08;;;;;;;0.00;0.00;;;27.70;64.20;;;;;;3943005;30;20048;-68
2022/08/16 01:54:41;;;;;;;0.65;0.65;;;27.70;64.20;;;;;;3943272;30;20126;-68
2022/08/16 01:57:05;;;;;;;0.10;0.10;;;27.70;64.20;;;;;;3942554;30;20396;-68
2022/08/16 01:59:31;;;;;;;0.45;0.45;;;27.70;64.30;;;;;;3956481;29;20135;-69
2022/08/16 02:01:53;;;;;;;0.22;0.22;;;27.70;64.30;;;;;;3955887;29;20047;-69
2022/08/16 02:04:17;;;;;;;1.55;0.43;;;27.70;64.30;;;;;;3942945;30;20052;-69
2022/08/16 02:06:51;;;;;;;0.10;0.10;;;27.70;64.40;;;;;;3956073;29;20486;-68
2022/08/16 02:09:14;;;;;;;0.38;0.38;;;27.70;64.50;;;;;;3942592;30;20136;-69
2022/08/16 02:11:41;;;;;;;0.57;0.57;;;27.70;64.50;;;;;;3942743;30;20271;-68
2022/08/16 02:14:09;;;;;;;0.13;0.13;;;27.70;64.50;;;;;;3956018;29;20654;-68
2022/08/16 02:16:39;;;;;;;0.00;0.00;;;27.70;64.50;;;;;;3942493;30;20062;-68
2022/08/16 02:19:01;;;;;;;0.65;0.65;;;27.70;64.60;;;;;;3942034;30;20128;-68
2022/08/16 02:21:23;;;;;;;0.10;0.10;;;27.70;64.60;;;;;;3955912;29;20067;-69
2022/08/16 02:23:52;;;;;;;0.70;0.70;;;27.70;64.70;;;;;;3941605;29;20573;-68
2022/08/16 02:26:16;;;;;;;0.20;0.20;;;27.60;64.60;;;;;;3942653;30;20498;-68
2022/08/16 02:28:39;;;;;;;0.45;0.45;;;27.60;64.60;;;;;;3942774;30;20127;-68
2022/08/16 02:31:13;;;;;;;0.10;0.10;;;27.60;64.60;;;;;;3941973;29;20572;-68
2022/08/16 02:33:37;;;;;;;0.00;0.00;;;27.70;64.90;;;;;;3942257;29;20079;-68
2022/08/16 02:36:08;;;;;;;0.22;0.22;;;27.70;64.80;;;;;;3941927;30;20192;-67
2022/08/16 02:38:33;;;;;;;0.00;0.00;;;27.60;64.70;;;;;;3942284;30;20059;-67
2022/08/16 02:40:55;;;;;;;0.10;0.10;;;27.60;64.70;;;;;;3942094;29;20543;-67
2022/08/16 02:43:17;;;;;;;0.00;0.00;;;27.60;64.70;;;;;;3941808;29;20151;-67
2022/08/16 02:45:40;;;;;;;1.33;1.25;;;27.60;64.70;;;;;;3942323;29;20071;-67
2022/08/16 02:48:05;;;;;;;0.90;0.90;;;27.60;64.80;;;;;;3941585;29;20133;-67
2022/08/16 02:50:47;;;;;;;0.25;0.25;;;27.60;64.70;;;;;;3955412;29;20467;-68
2022/08/16 02:53:16;;;;;;;0.55;0.55;;;27.60;64.90;;;;;;3941628;30;20249;-67
2022/08/16 02:55:42;;;;;;;1.55;1.42;;;27.60;64.60;;;;;;3956129;29;20135;-67
2022/08/16 03:01:40;;;;;;;0.10;0.10;;;27.60;64.60;;;;;;4575812;24;20128;-64
2022/08/16 03:04:32;;;;;;;0.32;0.32;;;27.60;64.60;;;;;;4617093;24;20339;31
2022/08/16 03:07:09;;;;;;;1.55;0.85;;;27.60;64.60;;;;;;3916438;30;20114;-65
2022/08/16 03:09:36;;;;;;;0.50;0.30;;;27.60;65.60;;;;;;3899191;30;20063;-65
2022/08/16 03:11:58;;;;;;;0.20;0.20;;;27.60;64.60;;;;;;3912444;30;20503;-65
2022/08/16 03:14:22;;;;;;;0.45;0.45;;;27.60;64.70;;;;;;3910642;30;20179;-65
2022/08/16 03:16:46;;;;;;;0.05;0.05;;;27.60;64.80;;;;;;3912009;30;20048;-65
2022/08/16 03:19:22;;;;;;;0.03;0.03;;;27.60;64.70;;;;;;3898740;30;20521;-65
2022/08/16 03:21:46;;;;;;;0.00;0.00;;;27.60;64.60;;;;;;3910802;30;20609;-65
2022/08/16 03:24:09;;;;;;;0.70;0.70;;;27.60;64.70;;;;;;3899055;30;20056;-65
2022/08/16 03:26:50;;;;;;;0.03;0.03;;;27.60;64.70;;;;;;3898679;30;20061;-65
2022/08/16 03:29:12;;;;;;;0.60;0.60;;;27.60;64.70;;;;;;3898559;30;20063;-65
2022/08/16 03:31:35;;;;;;;0.47;0.47;;;27.60;64.70;;;;;;3911348;30;20082;-65
2022/08/16 03:34:01;;;;;;;0.17;0.17;;;27.60;64.70;;;;;;3911047;30;20052;-65
2022/08/16 03:36:24;;;;;;;0.00;0.00;;;27.60;64.70;;;;;;3910698;30;20060;-65
2022/08/16 03:38:56;;;;;;;1.35;1.13;;;27.60;64.70;;;;;;3911056;30;20045;-69
2022/08/16 03:41:19;;;;;;;0.00;0.00;;;27.60;64.70;;;;;;3899066;30;20123;-69
2022/08/16 03:43:45;;;;;;;0.28;0.28;;;27.60;65.60;;;;;;3912207;30;20447;-69
2022/08/16 03:46:14;;;;;;;0.00;0.00;;;27.60;64.70;;;;;;3898270;30;20049;-69
2022/08/16 03:48:56;;;;;;;0.10;0.10;;;27.60;64.70;;;;;;3909991;30;20064;-65
2022/08/16 03:51:20;;;;;;;0.17;0.17;;;27.50;64.60;;;;;;3896031;30;20064;-65
2022/08/16 03:53:49;;;;;;;1.33;1.33;;;27.50;64.70;;;;;;3910366;30;20114;-69
2022/08/16 03:56:25;;;;;;;0.00;0.00;;;27.50;64.70;;;;;;3914381;30;20121;-69
2022/08/16 03:58:49;;;;;;;0.00;0.00;;;27.50;64.70;;;;;;3901435;30;20057;-69
2022/08/16 04:01:11;;;;;;;0.10;0.10;;;27.50;64.70;;;;;;3888685;30;20064;-69
2022/08/16 04:03:34;;;;;;;0.00;0.00;;;27.50;64.70;;;;;;3901808;30;20079;-69
2022/08/16 04:05:57;;;;;;;3.03;0.73;;;27.50;64.70;;;;;;3900279;30;20057;-69
2022/08/16 04:08:21;;;;;;;1.55;1.50;;;27.50;64.70;;;;;;3901770;30;20072;-69
2022/08/16 04:10:54;;;;;;;0.10;0.10;;;27.50;64.80;;;;;;3914841;30;20063;-69
2022/08/16 04:13:19;;;;;;;0.00;0.00;;;27.50;64.80;;;;;;3901064;30;20057;-69
2022/08/16 04:16:02;;;;;;;0.40;0.40;;;27.50;64.70;;;;;;3901098;30;20053;-69
2022/08/16 04:18:24;;;;;;;0.00;0.00;;;27.50;65.60;;;;;;3914389;30;20071;-71
2022/08/16 04:20:50;;;;;;;1.17;0.65;;;27.50;64.70;;;;;;3913473;30;20063;-70
2022/08/16 04:23:16;;;;;;;2.08;1.48;;;27.50;64.70;;;;;;3901237;30;20425;-70
2022/08/16 04:25:39;;;;;;;0.10;0.10;;;27.50;65.10;;;;;;3901329;30;20068;-70
2022/08/16 04:28:04;;;;;;;0.00;0.00;;;27.50;65.80;;;;;;3914075;30;20110;-70
2022/08/16 04:30:49;;;;;;;0.17;0.17;;;27.50;65.00;;;;;;3899668;30;20456;-70
2022/08/16 04:33:12;;;;;;;0.00;0.00;;;27.50;64.90;;;;;;3909797;30;20064;-72
2022/08/16 04:35:37;;;;;;;0.08;0.08;;;27.50;65.80;;;;;;3912495;30;20513;-71
2022/08/16 04:38:01;;;;;;;0.08;0.08;;;27.50;64.90;;;;;;3894872;30;20116;-70
2022/08/16 04:40:37;;;;;;;0.10;0.10;;;27.50;64.90;;;;;;3915233;30;20087;-70
2022/08/16 04:43:00;;;;;;;0.00;0.00;;;27.40;64.80;;;;;;3927736;30;20056;-70
2022/08/16 04:45:24;;;;;;;0.00;0.00;;;27.40;64.80;;;;;;3913878;30;20492;-70
2022/08/16 04:48:01;;;;;;;0.00;0.00;;;27.40;64.80;;;;;;3923751;30;20143;-70
2022/08/16 04:50:30;;;;;;;0.20;0.20;;;27.40;64.80;;;;;;3926502;30;20139;-69
2022/08/16 04:52:59;;;;;;;0.10;0.10;;;27.40;64.80;;;;;;3927384;30;20147;-70
2022/08/16 04:55:26;;;;;;;0.10;0.10;;;27.40;64.80;;;;;;3912968;30;20515;-70
2022/08/16 04:57:54;;;;;;;1.40;0.55;;;27.40;64.80;;;;;;3913011;30;20067;-71
2022/08/16 05:00:21;;;;;;;0.80;0.63;;;27.40;64.70;;;;;;3900486;30;20580;-70
2022/08/16 05:02:54;;;;;;;0.20;0.20;;;27.40;64.80;;;;;;3900450;30;20107;-70
2022/08/16 05:05:21;;;;;;;0.20;0.20;;;27.40;64.70;;;;;;3911231;30;20055;-70
2022/08/16 05:07:44;;;;;;;0.65;0.65;;;27.40;64.70;;;;;;3900888;30;20069;-70
2022/08/16 05:10:19;;;;;;;0.28;0.28;;;27.40;64.70;;;;;;3900686;30;20064;-70
2022/08/16 05:12:44;;;;;;;0.45;0.35;;;27.40;64.70;;;;;;3900174;30;20538;-70
2022/08/16 05:15:09;;;;;;;0.32;0.32;;;27.40;64.60;;;;;;3899506;30;20071;-64
2022/08/16 05:17:33;;;;;;;0.00;0.00;;;27.40;64.60;;;;;;3911922;30;20048;-65
2022/08/16 05:19:59;;;;;;;0.00;0.00;;;27.40;64.50;;;;;;3900010;30;20115;-65
2022/08/16 05:22:31;;;;;;;0.17;0.17;;;27.40;64.40;;;;;;3912600;30;20389;-65
2022/08/16 05:24:56;;;;;;;0.10;0.10;;;27.40;64.50;;;;;;3898997;30;20830;-63
2022/08/16 05:27:18;;;;;;;0.15;0.15;;;27.40;64.50;;;;;;3900317;30;20063;-66
2022/08/16 05:29:41;;;;;;;0.20;0.20;;;27.40;64.40;;;;;;3899634;30;20513;-64
2022/08/16 05:32:21;;;;;;;0.00;0.00;;;27.40;64.40;;;;;;3901091;30;20061;-64
2022/08/16 05:34:55;;;;;;;2.80;0.45;;;27.30;64.30;;;;;;3897231;30;20072;-64
2022/08/16 05:37:17;;;;;;;0.10;0.10;;;27.30;64.20;;;;;;3897239;30;20437;-67
2022/08/16 05:39:44;;;;;;;0.40;0.40;;;27.30;64.20;;;;;;3899574;30;20172;-67
2022/08/16 05:42:07;;;;;;;0.15;0.15;;;27.30;64.10;;;;;;3910724;30;20068;-67
2022/08/16 05:44:30;;;;;;;0.73;0.70;;;27.30;64.00;;;;;;3898582;30;20063;-67
2022/08/16 05:46:54;;;;;;;0.15;0.15;;;27.30;64.00;;;;;;3898838;30;20151;-67
2022/08/16 05:49:18;;;;;;;5.38;2.72;;;27.30;63.90;;;;;;3899194;30;20567;-67
2022/08/16 05:51:45;;;;;;;0.00;0.00;;;27.30;63.90;;;;;;3898705;30;20080;-67
2022/08/16 05:54:16;;;;;;;1.13;1.05;;;27.30;63.80;;;;;;3898988;30;20067;-67
2022/08/16 05:56:41;;;;;;;0.52;0.52;;;27.30;63.80;;;;;;3898967;30;20150;-67
2022/08/16 05:59:04;;;;;;;0.40;0.40;;;27.30;63.80;;;;;;3898890;30;20122;-67
2022/08/16 06:01:27;;;;;;;0.55;0.55;;;27.30;63.80;;;;;;3899352;30;20143;-67
2022/08/16 06:03:49;;;;;;;0.20;0.20;;;27.30;63.80;;;;;;3886311;30;20069;-67
2022/08/16 06:06:35;;;;;;;0.05;0.05;;;27.30;63.70;;;;;;3912144;30;20143;-67
2022/08/16 06:08:57;;;;;;;0.80;0.80;;;27.40;63.70;;;;;;3898464;30;20492;-67
2022/08/16 06:11:20;;;;;;;0.10;0.10;;;27.40;63.50;;;;;;3899115;30;20061;-67
2022/08/16 06:13:49;;;;;;;0.13;0.13;;;27.40;63.40;;;;;;3910782;30;20075;-67
2022/08/16 06:16:20;;;;;;;0.20;0.20;;;27.40;63.20;;;;;;3911228;30;20072;-67
2022/08/16 06:18:46;;;;;;;0.32;0.32;;;27.40;63.10;;;;;;3911516;30;20055;-67
2022/08/16 06:21:08;;;;;;;1.75;1.10;;;27.40;63.10;;;;;;3898864;30;20111;-67
2022/08/16 06:23:30;;;;;;;0.20;0.20;;;27.40;62.90;;;;;;3897731;30;20075;-66
2022/08/16 06:25:57;;;;;;;0.57;0.57;;;27.40;62.80;;;;;;3911633;30;20582;-66
2022/08/16 06:28:23;;;;;;;0.32;0.32;;;27.40;62.80;;;;;;3898624;30;20068;-66
2022/08/16 06:30:58;;;;;;;0.50;0.35;;;27.30;62.60;;;;;;3895651;30;20056;-65
2022/08/16 06:33:20;;;;;;;0.28;0.28;;;27.30;62.60;;;;;;3895349;30;20060;-65
2022/08/16 06:35:46;;;;;;;1.50;1.40;;;27.30;62.60;;;;;;3890952;30;20149;-65
2022/08/16 06:38:09;;;;;;;0.10;0.10;;;27.30;62.60;;;;;;3898793;30;20058;-66
2022/08/16 06:40:43;;;;;;;0.80;0.80;;;27.30;62.60;;;;;;3910625;30;20099;-65
2022/08/16 06:43:09;;;;;;;0.00;0.00;;;27.30;62.50;;;;;;3905287;30;20052;-65
2022/08/16 06:45:41;;;;;;;3.88;2.90;;;27.40;62.50;;;;;;3896875;30;20061;-66
2022/08/16 06:48:09;;;;;;;0.10;0.10;;;27.40;62.40;;;;;;3897717;30;20049;-65
2022/08/16 06:50:32;;;;;;;0.00;0.00;;;27.40;62.30;;;;;;3898143;30;20057;-65
2022/08/16 06:53:00;;;;;;;0.10;0.10;;;27.40;62.30;;;;;;3885700;30;20433;-66
2022/08/16 06:55:29;;;;;;;0.10;0.10;;;27.40;62.40;;;;;;3898202;30;20077;-65
2022/08/16 06:57:55;;;;;;;0.45;0.45;;;27.40;62.00;;;;;;3911677;30;20072;-66
2022/08/16 07:00:17;;;;;;;0.52;0.52;;;27.50;62.00;;;;;;3911954;30;20064;-66
2022/08/16 07:02:56;;;;;;;1.08;1.08;;;27.50;61.80;;;;;;3910376;30;20141;-66
2022/08/16 07:05:20;;;;;;;0.52;0.52;;;27.50;61.80;;;;;;3897808;30;20071;-66
2022/08/16 07:08:03;;;;;;;0.20;0.20;;;27.60;61.80;;;;;;3911604;30;20063;-66
2022/08/16 07:10:27;;;;;;;0.32;0.32;;;27.60;61.70;;;;;;3897983;30;20144;-68
2022/08/16 07:12:49;;;;;;;0.30;0.30;;;27.60;61.70;;;;;;3911681;30;20062;-65
2022/08/16 07:15:19;;;;;;;0.25;0.25;;;27.70;61.60;;;;;;3898372;30;20127;-68
2022/08/16 07:17:43;;;;;;;0.20;0.20;;;27.70;61.60;;;;;;3909497;30;20061;-67
2022/08/16 07:20:08;;;;;;;0.57;0.57;;;27.70;61.50;;;;;;3910104;30;20106;-68
2022/08/16 07:22:55;;;;;;;0.80;0.77;;;27.80;61.60;;;;;;3895555;30;20182;-69
2022/08/16 07:25:29;;;;;;;0.38;0.38;;;27.80;61.80;;;;;;3883503;30;20057;-68
2022/08/16 07:27:52;;;;;;;0.30;0.30;;;27.80;61.60;;;;;;3895931;30;20169;-65
2022/08/16 07:30:19;;;;;;;0.10;0.10;;;27.80;61.50;;;;;;3909957;30;20590;-68
2022/08/16 07:33:02;;;;;;;0.20;0.20;;;27.90;61.50;;;;;;3897129;30;20169;-67
2022/08/16 07:35:25;;;;;;;0.10;0.10;;;27.90;61.20;;;;;;3897857;30;20056;-66
2022/08/16 07:37:47;;;;;;;0.35;0.35;;;27.90;60.90;;;;;;3898205;30;20157;-66
2022/08/16 07:40:17;;;;;;;0.47;0.47;;;27.90;60.80;;;;;;3897588;30;20049;-66
2022/08/16 07:42:40;;;;;;;0.15;0.15;;;27.90;60.50;;;;;;3895217;30;20096;-66
2022/08/16 07:45:03;;;;;;;0.30;0.30;;;27.90;60.20;;;;;;3896000;30;20138;-66
2022/08/16 07:47:29;;;;;;;0.25;0.25;;;27.90;59.90;;;;;;3883261;30;20079;-66
2022/08/16 07:49:53;;;;;;;0.32;0.32;;;27.90;59.50;;;;;;3896283;30;20504;-66
2022/08/16 07:52:20;;;;;;;0.40;0.40;;;27.90;59.30;;;;;;3893960;30;20082;-66
2022/08/16 07:54:43;;;;;;;1.27;0.70;;;27.90;59.20;;;;;;3897844;30;20489;-66
2022/08/16 07:57:10;;;;;;;0.43;0.43;;;28.00;59.90;;;;;;3897745;30;20079;-66
2022/08/16 07:59:34;;;;;;;0.73;0.68;;;28.00;59.00;;;;;;3910459;30;20494;-66
2022/08/16 08:02:04;;;;;;;0.10;0.10;;;28.00;59.10;;;;;;3909520;30;20080;-66
2022/08/16 08:04:26;;;;;;;0.52;0.32;;;28.00;59.10;;;;;;3891622;30;20069;-66
2022/08/16 08:06:53;;;;;;;0.32;0.32;;;28.00;59.20;;;;;;3897148;30;20406;-66
2022/08/16 08:09:15;;;;;;;0.20;0.20;;;28.00;59.00;;;;;;3897628;30;20053;-66
2022/08/16 08:11:37;;;;;;;6.03;0.98;;;28.00;58.90;;;;;;3910583;30;20405;-66
2022/08/16 08:14:04;;;;;;;0.20;0.20;;;28.00;58.60;;;;;;3908693;30;20052;-66
2022/08/16 08:16:33;;;;;;;0.10;0.10;;;28.00;58.10;;;;;;3909346;30;20176;-66
2022/08/16 08:18:57;;;;;;;0.17;0.17;;;28.00;57.90;;;;;;3897122;30;20134;-66
2022/08/16 08:21:23;;;;;;;0.00;0.00;;;28.10;57.90;;;;;;3909499;30;20065;-66
2022/08/16 08:23:48;;;;;;;0.45;0.45;;;28.10;57.80;;;;;;3896995;30;20049;-66
2022/08/16 08:26:10;;;;;;;0.10;0.10;;;28.10;57.70;;;;;;3909553;30;20437;-65
2022/08/16 08:28:38;;;;;;;0.63;0.63;;;28.10;57.60;;;;;;3909108;30;20082;-65
2022/08/16 08:31:03;;;;;;;0.05;0.05;;;28.10;58.20;;;;;;3897447;30;20115;-65
2022/08/16 08:33:30;;;;;;;0.68;0.68;;;28.10;57.40;;;;;;3908535;30;20092;-65
2022/08/16 08:35:55;;;;;;;0.63;0.63;;;28.10;57.10;;;;;;3910449;30;20060;-65
2022/08/16 08:38:17;;;;;;;0.00;0.00;;;28.10;57.00;;;;;;3910698;30;20061;-66
2022/08/16 08:41:00;;;;;;;0.43;0.43;;;28.10;56.80;;;;;;3898265;30;20053;-66
2022/08/16 08:43:22;;;;;;;0.00;0.00;;;28.10;56.50;;;;;;3912603;30;20087;-65
2022/08/16 08:45:51;;;;;;;0.47;0.47;;;28.20;56.40;;;;;;3911763;30;20143;-66
2022/08/16 08:48:18;;;;;;;0.70;0.63;;;28.10;56.20;;;;;;3899272;30;20088;-65
2022/08/16 08:50:50;;;;;;;0.52;0.52;;;28.20;56.10;;;;;;3911441;30;20128;-66
2022/08/16 08:53:12;;;;;;;0.22;0.22;;;28.10;56.00;;;;;;3911406;30;20162;-66
2022/08/16 08:55:36;;;;;;;0.30;0.30;;;28.20;56.10;;;;;;3899058;30;20056;-66
2022/08/16 08:57:58;;;;;;;0.17;0.17;;;28.20;56.10;;;;;;3912869;30;20064;-65
2022/08/16 09:00:30;;;;;;;0.40;0.40;;;28.20;55.90;;;;;;3899171;30;20060;-66
2022/08/16 09:02:58;;;;;;;0.30;0.30;;;28.20;55.70;;;;;;3899229;30;20064;-66
2022/08/16 09:05:24;;;;;;;1.38;1.30;;;28.20;55.50;;;;;;3863268;30;1094308;-67
2022/08/16 09:07:47;;;;;;;0.00;0.00;;;28.20;55.50;;;;;;3911172;30;20058;-67
2022/08/16 09:10:21;;;;;;;0.00;0.00;;;28.20;55.50;;;;;;3911547;30;20096;-67
2022/08/16 09:12:43;;;;;;;0.00;0.00;;;28.30;55.50;;;;;;3899344;30;20465;-68
2022/08/16 09:15:16;;;;;;;0.00;0.00;;;28.30;55.40;;;;;;3899684;30;20071;-68
2022/08/16 09:17:41;;;;;;;0.20;0.20;;;28.20;55.40;;;;;;3911687;30;20084;-68
2022/08/16 09:20:12;;;;;;;;;;;28.30;55.50;;;;;;3911553;30;20126;-67
2022/08/16 09:22:36;;;;;;;0.28;0.28;;;28.30;55.50;;;;;;3911728;30;19958;-67
2022/08/16 09:24:59;;;;;;;0.00;0.00;;;28.30;55.30;;;;;;3912636;30;20122;-67
2022/08/16 09:27:30;;;;;;;0.00;0.00;;;28.40;55.20;;;;;;3913031;30;20067;-67
2022/08/16 09:30:10;;;;;;;0.35;0.35;;;28.40;55.10;;;;;;3911921;30;20095;-67
2022/08/16 09:32:53;;;;;;;0.00;0.00;;;28.40;55.00;;;;;;3913029;30;20056;-67
2022/08/16 09:35:15;;;;;;;0.52;0.52;;;28.40;54.80;;;;;;3912466;30;20386;-67
2022/08/16 09:37:39;;;;;;;0.15;0.15;;;28.40;54.70;;;;;;3912787;30;20052;-66
2022/08/16 09:40:02;;;;;;;0.10;0.10;;;28.40;54.70;;;;;;3912548;30;20066;-67
2022/08/16 09:42:25;;;;;;;0.00;0.00;;;28.40;54.70;;;;;;3912762;30;20071;-67
2022/08/16 09:44:48;;;;;;;0.30;0.30;;;28.40;54.90;;;;;;3912319;30;20087;-66
2022/08/16 09:47:30;;;;;;;0.22;0.22;;;28.40;54.70;;;;;;3897211;30;20076;-67
2022/08/16 09:50:12;;;;;;;0.00;0.00;;;28.50;54.70;;;;;;3898309;30;20130;-67
2022/08/16 09:52:36;;;;;;;0.00;0.00;;;28.50;54.70;;;;;;3897328;30;20049;-67
2022/08/16 09:55:03;;;;;;;0.55;0.55;;;28.50;54.50;;;;;;3898686;30;20122;-67
2022/08/16 09:57:25;;;;;;;0.08;0.08;;;28.50;54.00;;;;;;3898124;30;20064;-67
2022/08/16 09:59:47;;;;;;;0.15;0.15;;;28.50;54.30;;;;;;3898455;30;20131;-68
2022/08/16 10:02:10;;;;;;;0.00;0.00;;;28.50;53.10;;;;;;3906460;30;20535;-68
2022/08/16 10:04:44;;;;;;;0.05;0.05;;;28.60;52.90;;;;;;3912371;30;20052;-68
2022/08/16 10:07:14;;;;;;;0.00;0.00;;;28.60;52.70;;;;;;3912034;30;20058;-67
2022/08/16 10:09:37;;;;;;;0.20;0.20;;;28.60;52.70;;;;;;3912459;30;20072;-67
2022/08/16 10:14:45;;;;;;;0.10;0.10;;;28.60;52.00;;;;;;3912027;30;20163;-68
2022/08/16 10:17:07;;;;;;;0.00;0.00;;;28.60;51.70;;;;;;3912225;30;20531;-68
2022/08/16 10:19:30;;;;;;;0.45;0.30;;;28.60;51.40;;;;;;3911969;30;20060;-68
2022/08/16 10:21:53;;;;;;;0.00;0.00;;;28.60;51.20;;;;;;3912045;30;20056;-68
2022/08/16 10:24:18;;;;;;;0.00;0.00;;;28.70;51.20;;;;;;3912035;30;20067;-68
2022/08/16 10:26:49;;;;;;;0.00;0.00;;;28.70;51.10;;;;;;3911711;30;20508;-67
2022/08/16 10:29:23;;;;;;;0.00;0.00;;;28.70;51.20;;;;;;3911819;30;20165;-67
2022/08/16 10:31:46;;;;;;;0.00;0.00;;;28.70;51.30;;;;;;3911790;30;20502;-67
2022/08/16 10:34:15;;;;;;;0.47;0.47;;;28.70;51.40;;;;;;3911768;30;20099;-67
2022/08/16 10:36:52;;;;;;;0.00;0.00;;;28.70;51.40;;;;;;3911128;30;20110;-67
2022/08/16 10:39:15;;;;;;;0.45;0.45;;;28.80;51.40;;;;;;3911217;30;20068;-67
2022/08/16 10:41:37;;;;;;;0.00;0.00;;;28.80;51.20;;;;;;3911215;30;20408;-67
2022/08/16 10:43:59;;;;;;;0.00;0.00;;;28.80;51.10;;;;;;3910283;30;20099;-67
2022/08/16 10:46:23;;;;;;;0.00;0.00;;;28.80;51.80;;;;;;3897991;30;20061;-67
2022/08/16 10:48:55;;;;;;;0.57;0.57;;;28.90;50.90;;;;;;3911489;30;20502;-68
2022/08/16 10:51:17;;;;;;;0.38;0.38;;;28.90;50.70;;;;;;3911873;30;20060;-67
2022/08/16 10:53:40;;;;;;;0.17;0.17;;;28.90;50.60;;;;;;3911301;30;20122;-67
2022/08/16 10:56:04;;;;;;;0.00;0.00;;;28.80;50.40;;;;;;3911739;30;20475;-67
2022/08/16 10:58:27;;;;;;;0.20;0.20;;;28.90;50.50;;;;;;3911232;30;20118;-67
2022/08/16 11:00:55;;;;;;;0.08;0.08;;;28.90;50.50;;;;;;3911710;30;20063;-68
2022/08/16 11:03:20;;;;;;;0.10;0.10;;;28.90;50.60;;;;;;3911728;30;20117;-67
2022/08/16 11:06:03;;;;;;;0.00;0.00;;;28.90;50.40;;;;;;3911061;30;20053;-67
2022/08/16 11:08:27;;;;;;;0.95;0.93;;;28.90;50.50;;;;;;3910913;30;20147;-67
2022/08/16 11:10:56;;;;;;;0.00;0.00;;;29.00;51.20;;;;;;3909893;30;20086;-68
2022/08/16 11:13:27;;;;;;;0.20;0.20;;;29.00;50.50;;;;;;3911034;30;20055;-67
2022/08/16 11:16:10;;;;;;;0.82;0.82;;;29.00;50.60;;;;;;3896836;30;20143;-67
2022/08/16 11:18:49;;;;;;;0.00;0.00;;;29.00;51.40;;;;;;3899479;30;20076;-68
2022/08/16 11:21:25;;;;;;;0.00;0.00;;;29.00;50.50;;;;;;3910773;30;20117;-68
2022/08/16 11:23:50;;;;;;;0.28;0.28;;;29.00;50.50;;;;;;3910685;30;20059;-67
2022/08/16 11:26:18;;;;;;;0.03;0.03;;;29.00;50.60;;;;;;3909665;30;20068;-68
2022/08/16 11:28:43;;;;;;;0.00;0.00;;;29.10;50.70;;;;;;3911050;30;20205;-67
2022/08/16 11:31:26;;;;;;;2.08;0.95;;;29.10;50.70;;;;;;3910195;30;20067;-67
2022/08/16 11:33:49;;;;;;;0.20;0.20;;;29.10;50.70;;;;;;3911010;30;20185;-67
2022/08/16 11:36:13;;;;;;;1.30;1.20;;;29.10;50.70;;;;;;3914309;30;20059;-66
2022/08/16 11:38:50;;;;;;;0.10;0.10;;;29.10;50.60;;;;;;3911036;30;20057;-67
2022/08/16 11:41:18;;;;;;;0.00;0.00;;;29.10;50.50;;;;;;3910883;30;20068;-67
2022/08/16 11:43:41;;;;;;;0.13;0.13;;;29.10;50.50;;;;;;3910931;30;20574;-63
2022/08/16 11:46:06;;;;;;;0.10;0.10;;;29.10;50.40;;;;;;3896960;30;20068;-68
2022/08/16 11:48:32;;;;;;;3.00;1.25;;;29.20;50.50;;;;;;3901783;30;20125;-70
2022/08/16 11:50:57;;;;;;;1.95;1.80;;;29.20;50.90;;;;;;3911162;30;20076;-65
2022/08/16 11:53:20;;;;;;;4.53;2.65;;;29.20;51.10;;;;;;3911777;30;20061;-68
2022/08/16 11:55:43;;;;;;;1.75;1.65;;;29.20;51.60;;;;;;3897494;30;20061;-67
2022/08/16 11:58:07;;;;;;;1.85;1.75;;;29.20;52.00;;;;;;3911249;30;20063;-68
2022/08/16 12:00:31;;;;;;;0.93;0.88;;;29.20;52.10;;;;;;3897140;30;20057;-68
2022/08/16 12:02:55;;;;;;;1.67;1.58;;;29.20;52.20;;;;;;3911019;30;20060;-67
2022/08/16 12:05:17;;;;;;;0.73;0.63;;;29.30;52.30;;;;;;3909867;30;20064;-68
2022/08/16 12:07:41;;;;;;;0.38;0.38;;;29.20;52.20;;;;;;3910372;30;20071;-68
2022/08/16 12:10:06;;;;;;;0.25;0.25;;;29.30;52.30;;;;;;3910725;30;20068;-68
2022/08/16 12:12:29;;;;;;;1.13;1.13;;;29.30;52.30;;;;;;3910286;30;20229;-68
2022/08/16 12:14:51;;;;;;;1.67;0.80;;;29.30;52.30;;;;;;3910389;30;20809;-69
2022/08/16 12:17:21;;;;;;;0.13;0.13;;;29.30;52.30;;;;;;3913779;30;20064;-68
2022/08/16 12:19:44;;;;;;;0.43;0.43;;;29.30;52.20;;;;;;3913493;30;20584;-70
2022/08/16 12:22:07;;;;;;;0.10;0.10;;;29.30;52.20;;;;;;3913064;30;20061;-69
2022/08/16 12:24:42;;;;;;;0.82;0.82;;;29.30;52.10;;;;;;3913378;30;20041;-67
2022/08/16 12:27:05;;;;;;;0.20;0.20;;;29.30;52.00;;;;;;3913367;30;20393;-68
2022/08/16 12:29:28;;;;;;;0.20;0.20;;;29.40;52.10;;;;;;3913554;30;20080;-66
2022/08/16 12:31:50;;;;;;;0.73;0.73;;;29.40;52.00;;;;;;3912633;30;20828;-66
2022/08/16 12:34:17;;;;;;;0.63;0.63;;;29.40;52.10;;;;;;3900203;30;20059;-65
2022/08/16 12:36:40;;;;;;;0.17;0.17;;;29.40;52.00;;;;;;3912891;30;20106;-65
2022/08/16 12:39:04;;;;;;;0.55;0.52;;;29.40;52.00;;;;;;3913913;30;20056;-65
2022/08/16 12:41:28;;;;;;;0.38;0.38;;;29.40;52.00;;;;;;3906865;30;20138;-65
2022/08/16 12:43:50;;;;;;;1.40;1.30;;;29.40;52.00;;;;;;3899455;30;20485;-65
2022/08/16 12:46:12;;;;;;;0.05;0.05;;;29.40;51.90;;;;;;3904835;30;20065;-65
2022/08/16 12:51:20;;;;;;;0.25;0.25;;;29.40;51.90;;;;;;3913516;30;20080;-65
2022/08/16 12:53:46;;;;;;;0.20;0.20;;;29.50;51.90;;;;;;3912988;30;20520;-65
2022/08/16 12:56:10;;;;;;;0.47;0.47;;;29.50;51.90;;;;;;3904337;30;20076;-65